Terminal Aerodrome Forecast
Issued by NWS Raleigh/Durham, NC

Home | Current Version | Previous Version | Text Only | Print | Product List | Glossary On
Versions: 1 2 3 4 5 6 7 8 9 10 11 12 13 14 15 16 17 18 19 20 21 22 23 24 25 26 27 28 29 30 31 32 33 34 35 36 37 38 39 40 41
000
FTUS42 KRAH 211733
TAFRDU
TAF
KRDU 211733Z 2118/2218 23008KT P6SM SCT045
      TEMPO 2122/2201 BKN050
     FM220100 32010G20KT P6SM BKN060
     FM221000 31010G16KT P6SM FEW035
     FM221600 32012G20KT P6SM FEW040=

USA.gov is the U.S. government's official web portal to all federal, state and local government web resources and services.